Govan, Canada
Current Conditions -  °F | °C
As of 6:00 AM on Monday 24 Nov 2014 (Local Time) from CYQR Reporting Station
Light Snow Light Snow  
Wind Chill: -15°   Ceiling: 500
Heat Index: -11°   Visibility: 15mi
Dew Point: -12°   Wind: 5mph
Humidity: 92%   Direction: 270°W
Pressure: 29.89"   Gusts: NA
Location:  51.32°N, 105°W
Report Text: CYQR 241200Z 27004KT 15SM -SN OVC005 M11/M12 A2989 RMK SC8 SLP166
Loading
Personal Weather Stations






























Interactive Weather Map New forecast layout! Learn more

10-Day Weather Forecast

Advertisements
Track Severe Weather on mobile